sensor_id;sensor_type;location;lat;lon;timestamp;P1;durP1;ratioP1;P2;durP2;ratioP2
12687;SDS011;6408;59.388;17.798;2023-01-15T00:00:27;12.33;;;4.03;;
12687;SDS011;6408;59.388;17.798;2023-01-15T00:02:55;7.57;;;4.00;;
12687;SDS011;6408;59.388;17.798;2023-01-15T00:05:22;11.90;;;3.57;;
12687;SDS011;6408;59.388;17.798;2023-01-15T00:07:49;11.77;;;3.40;;
12687;SDS011;6408;59.388;17.798;2023-01-15T00:10:20;9.13;;;3.70;;
12687;SDS011;6408;59.388;17.798;2023-01-15T00:12:47;8.10;;;3.20;;
12687;SDS011;6408;59.388;17.798;2023-01-15T00:15:15;11.77;;;3.27;;
12687;SDS011;6408;59.388;17.798;2023-01-15T00:17:43;8.57;;;3.73;;
12687;SDS011;6408;59.388;17.798;2023-01-15T00:20:10;10.83;;;3.20;;
12687;SDS011;6408;59.388;17.798;2023-01-15T00:22:38;10.50;;;3.03;;
12687;SDS011;6408;59.388;17.798;2023-01-15T00:25:06;7.23;;;3.10;;
12687;SDS011;6408;59.388;17.798;2023-01-15T00:27:59;10.33;;;3.23;;
12687;SDS011;6408;59.388;17.798;2023-01-15T00:30:26;7.23;;;3.30;;
12687;SDS011;6408;59.388;17.798;2023-01-15T00:32:54;6.47;;;2.70;;
12687;SDS011;6408;59.388;17.798;2023-01-15T00:35:21;11.47;;;3.07;;
12687;SDS011;6408;59.388;17.798;2023-01-15T00:37:49;6.57;;;2.37;;
12687;SDS011;6408;59.388;17.798;2023-01-15T00:40:18;8.13;;;3.10;;
12687;SDS011;6408;59.388;17.798;2023-01-15T00:42:46;4.60;;;2.30;;
12687;SDS011;6408;59.388;17.798;2023-01-15T00:45:15;5.83;;;2.20;;
12687;SDS011;6408;59.388;17.798;2023-01-15T00:47:42;5.13;;;2.60;;
12687;SDS011;6408;59.388;17.798;2023-01-15T00:50:12;4.47;;;2.30;;
12687;SDS011;6408;59.388;17.798;2023-01-15T00:52:40;6.93;;;1.63;;
12687;SDS011;6408;59.388;17.798;2023-01-15T00:55:07;2.40;;;1.63;;
12687;SDS011;6408;59.388;17.798;2023-01-15T00:57:35;6.73;;;2.50;;
12687;SDS011;6408;59.388;17.798;2023-01-15T01:00:03;4.23;;;1.77;;
12687;SDS011;6408;59.388;17.798;2023-01-15T01:02:32;2.63;;;1.40;;
12687;SDS011;6408;59.388;17.798;2023-01-15T01:04:59;3.30;;;1.83;;
12687;SDS011;6408;59.388;17.798;2023-01-15T01:07:26;6.37;;;1.70;;
12687;SDS011;6408;59.388;17.798;2023-01-15T01:09:53;4.23;;;1.60;;
12687;SDS011;6408;59.388;17.798;2023-01-15T01:12:21;4.23;;;1.87;;
12687;SDS011;6408;59.388;17.798;2023-01-15T01:14:50;3.53;;;1.43;;
12687;SDS011;6408;59.388;17.798;2023-01-15T01:17:17;3.37;;;1.80;;
12687;SDS011;6408;59.388;17.798;2023-01-15T01:19:45;3.50;;;1.90;;
12687;SDS011;6408;59.388;17.798;2023-01-15T01:22:13;2.47;;;1.30;;
12687;SDS011;6408;59.388;17.798;2023-01-15T01:24:40;2.10;;;1.40;;
12687;SDS011;6408;59.388;17.798;2023-01-15T01:27:07;3.00;;;1.30;;
12687;SDS011;6408;59.388;17.798;2023-01-15T01:29:34;2.13;;;1.10;;
12687;SDS011;6408;59.388;17.798;2023-01-15T01:32:01;2.93;;;1.63;;
12687;SDS011;6408;59.388;17.798;2023-01-15T01:34:29;2.07;;;1.50;;
12687;SDS011;6408;59.388;17.798;2023-01-15T01:36:59;2.30;;;1.27;;
12687;SDS011;6408;59.388;17.798;2023-01-15T01:39:26;2.60;;;1.70;;
12687;SDS011;6408;59.388;17.798;2023-01-15T01:41:53;4.47;;;1.50;;
12687;SDS011;6408;59.388;17.798;2023-01-15T01:47:30;2.70;;;1.47;;
12687;SDS011;6408;59.388;17.798;2023-01-15T01:50:01;1.43;;;1.20;;
12687;SDS011;6408;59.388;17.798;2023-01-15T01:52:35;2.70;;;1.30;;
12687;SDS011;6408;59.388;17.798;2023-01-15T01:55:07;4.07;;;1.70;;
12687;SDS011;6408;59.388;17.798;2023-01-15T01:57:35;5.00;;;1.53;;
12687;SDS011;6408;59.388;17.798;2023-01-15T02:00:04;4.47;;;1.60;;
12687;SDS011;6408;59.388;17.798;2023-01-15T02:02:32;3.77;;;1.67;;
12687;SDS011;6408;59.388;17.798;2023-01-15T02:05:00;2.93;;;1.20;;
12687;SDS011;6408;59.388;17.798;2023-01-15T02:07:29;1.33;;;1.23;;
12687;SDS011;6408;59.388;17.798;2023-01-15T02:10:00;1.67;;;1.40;;
12687;SDS011;6408;59.388;17.798;2023-01-15T02:12:29;4.60;;;2.07;;
12687;SDS011;6408;59.388;17.798;2023-01-15T02:15:02;3.47;;;1.47;;
12687;SDS011;6408;59.388;17.798;2023-01-15T02:17:35;4.97;;;1.40;;
12687;SDS011;6408;59.388;17.798;2023-01-15T02:20:15;3.60;;;1.30;;
12687;SDS011;6408;59.388;17.798;2023-01-15T02:23:11;1.67;;;1.00;;
12687;SDS011;6408;59.388;17.798;2023-01-15T02:28:47;4.30;;;1.23;;
12687;SDS011;6408;59.388;17.798;2023-01-15T02:31:19;4.93;;;0.90;;
12687;SDS011;6408;59.388;17.798;2023-01-15T02:33:53;1.10;;;1.00;;
12687;SDS011;6408;59.388;17.798;2023-01-15T02:36:25;3.23;;;1.13;;
12687;SDS011;6408;59.388;17.798;2023-01-15T02:38:56;1.90;;;1.13;;
12687;SDS011;6408;59.388;17.798;2023-01-15T02:41:27;3.37;;;1.20;;
12687;SDS011;6408;59.388;17.798;2023-01-15T02:44:00;2.97;;;1.30;;
12687;SDS011;6408;59.388;17.798;2023-01-15T02:46:31;0.87;;;0.73;;
12687;SDS011;6408;59.388;17.798;2023-01-15T02:49:00;2.13;;;1.00;;
12687;SDS011;6408;59.388;17.798;2023-01-15T02:51:32;1.17;;;0.87;;
12687;SDS011;6408;59.388;17.798;2023-01-15T02:54:05;1.40;;;0.80;;
12687;SDS011;6408;59.388;17.798;2023-01-15T02:56:37;0.60;;;0.60;;
12687;SDS011;6408;59.388;17.798;2023-01-15T02:59:10;2.43;;;1.00;;
12687;SDS011;6408;59.388;17.798;2023-01-15T03:01:43;0.83;;;0.83;;
12687;SDS011;6408;59.388;17.798;2023-01-15T03:04:14;2.50;;;1.30;;
12687;SDS011;6408;59.388;17.798;2023-01-15T03:06:47;2.37;;;0.93;;
12687;SDS011;6408;59.388;17.798;2023-01-15T03:09:18;1.50;;;1.00;;
12687;SDS011;6408;59.388;17.798;2023-01-15T03:11:48;1.20;;;0.80;;
12687;SDS011;6408;59.388;17.798;2023-01-15T03:14:26;1.93;;;0.90;;
12687;SDS011;6408;59.388;17.798;2023-01-15T03:17:00;1.93;;;0.80;;
12687;SDS011;6408;59.388;17.798;2023-01-15T03:19:36;1.43;;;0.90;;
12687;SDS011;6408;59.388;17.798;2023-01-15T03:22:08;1.07;;;0.80;;
12687;SDS011;6408;59.388;17.798;2023-01-15T03:24:43;1.00;;;0.77;;
12687;SDS011;6408;59.388;17.798;2023-01-15T03:27:14;1.30;;;0.87;;
12687;SDS011;6408;59.388;17.798;2023-01-15T03:29:44;1.10;;;0.80;;
12687;SDS011;6408;59.388;17.798;2023-01-15T03:32:13;2.20;;;0.90;;
12687;SDS011;6408;59.388;17.798;2023-01-15T03:34:42;0.93;;;0.50;;
12687;SDS011;6408;59.388;17.798;2023-01-15T03:37:11;1.07;;;0.90;;
12687;SDS011;6408;59.388;17.798;2023-01-15T03:39:39;1.03;;;0.70;;
12687;SDS011;6408;59.388;17.798;2023-01-15T03:42:11;0.80;;;0.70;;
12687;SDS011;6408;59.388;17.798;2023-01-15T03:44:48;1.33;;;0.67;;
12687;SDS011;6408;59.388;17.798;2023-01-15T03:47:23;1.20;;;0.70;;
12687;SDS011;6408;59.388;17.798;2023-01-15T03:50:01;1.03;;;0.70;;
12687;SDS011;6408;59.388;17.798;2023-01-15T03:52:36;1.53;;;0.67;;
12687;SDS011;6408;59.388;17.798;2023-01-15T03:55:10;2.27;;;0.77;;
12687;SDS011;6408;59.388;17.798;2023-01-15T03:57:40;2.53;;;0.80;;
12687;SDS011;6408;59.388;17.798;2023-01-15T04:00:16;1.13;;;0.70;;
12687;SDS011;6408;59.388;17.798;2023-01-15T04:02:47;1.07;;;0.80;;
12687;SDS011;6408;59.388;17.798;2023-01-15T04:05:17;2.63;;;0.73;;
12687;SDS011;6408;59.388;17.798;2023-01-15T04:07:46;0.80;;;0.60;;
12687;SDS011;6408;59.388;17.798;2023-01-15T04:10:14;0.80;;;0.80;;
12687;SDS011;6408;59.388;17.798;2023-01-15T04:12:42;1.33;;;0.80;;
12687;SDS011;6408;59.388;17.798;2023-01-15T04:15:10;1.60;;;0.90;;
12687;SDS011;6408;59.388;17.798;2023-01-15T04:17:40;2.23;;;0.90;;
12687;SDS011;6408;59.388;17.798;2023-01-15T04:20:08;1.33;;;0.60;;
12687;SDS011;6408;59.388;17.798;2023-01-15T04:22:36;2.30;;;0.80;;
12687;SDS011;6408;59.388;17.798;2023-01-15T04:25:04;1.87;;;0.90;;
12687;SDS011;6408;59.388;17.798;2023-01-15T04:27:32;2.20;;;0.77;;
12687;SDS011;6408;59.388;17.798;2023-01-15T04:30:00;2.73;;;0.60;;
12687;SDS011;6408;59.388;17.798;2023-01-15T04:32:27;0.60;;;0.60;;
12687;SDS011;6408;59.388;17.798;2023-01-15T04:34:55;1.40;;;0.77;;
12687;SDS011;6408;59.388;17.798;2023-01-15T04:37:23;1.43;;;0.77;;
12687;SDS011;6408;59.388;17.798;2023-01-15T04:39:50;1.10;;;0.70;;
12687;SDS011;6408;59.388;17.798;2023-01-15T04:42:17;0.70;;;0.60;;
12687;SDS011;6408;59.388;17.798;2023-01-15T04:45:07;1.83;;;0.93;;
12687;SDS011;6408;59.388;17.798;2023-01-15T04:47:35;2.40;;;0.90;;
12687;SDS011;6408;59.388;17.798;2023-01-15T04:50:04;1.07;;;0.80;;
12687;SDS011;6408;59.388;17.798;2023-01-15T04:52:32;2.33;;;1.00;;
12687;SDS011;6408;59.388;17.798;2023-01-15T04:54:59;2.37;;;0.90;;
12687;SDS011;6408;59.388;17.798;2023-01-15T04:57:26;1.57;;;0.80;;
12687;SDS011;6408;59.388;17.798;2023-01-15T04:59:53;1.50;;;0.60;;
12687;SDS011;6408;59.388;17.798;2023-01-15T05:02:20;1.17;;;0.70;;
12687;SDS011;6408;59.388;17.798;2023-01-15T05:04:48;1.67;;;0.87;;
12687;SDS011;6408;59.388;17.798;2023-01-15T05:07:17;1.30;;;0.73;;
12687;SDS011;6408;59.388;17.798;2023-01-15T05:09:45;1.50;;;1.10;;
12687;SDS011;6408;59.388;17.798;2023-01-15T05:12:15;0.77;;;0.70;;
12687;SDS011;6408;59.388;17.798;2023-01-15T05:14:43;0.73;;;0.60;;
12687;SDS011;6408;59.388;17.798;2023-01-15T05:17:10;2.00;;;1.13;;
12687;SDS011;6408;59.388;17.798;2023-01-15T05:19:37;1.00;;;0.60;;
12687;SDS011;6408;59.388;17.798;2023-01-15T05:22:05;1.63;;;0.97;;
12687;SDS011;6408;59.388;17.798;2023-01-15T05:24:34;1.10;;;1.00;;
12687;SDS011;6408;59.388;17.798;2023-01-15T05:27:01;1.00;;;0.60;;
12687;SDS011;6408;59.388;17.798;2023-01-15T05:29:29;2.17;;;0.93;;
12687;SDS011;6408;59.388;17.798;2023-01-15T05:31:57;1.93;;;0.93;;
12687;SDS011;6408;59.388;17.798;2023-01-15T05:34:24;2.63;;;0.90;;
12687;SDS011;6408;59.388;17.798;2023-01-15T05:36:51;2.63;;;0.80;;
12687;SDS011;6408;59.388;17.798;2023-01-15T05:39:18;1.27;;;0.80;;
12687;SDS011;6408;59.388;17.798;2023-01-15T05:41:48;1.27;;;0.70;;
12687;SDS011;6408;59.388;17.798;2023-01-15T05:44:16;0.77;;;0.60;;
12687;SDS011;6408;59.388;17.798;2023-01-15T05:46:44;1.40;;;0.70;;
12687;SDS011;6408;59.388;17.798;2023-01-15T05:49:13;2.53;;;0.70;;
12687;SDS011;6408;59.388;17.798;2023-01-15T05:51:42;0.43;;;0.43;;
12687;SDS011;6408;59.388;17.798;2023-01-15T05:54:10;0.30;;;0.30;;
12687;SDS011;6408;59.388;17.798;2023-01-15T05:56:39;0.43;;;0.43;;
12687;SDS011;6408;59.388;17.798;2023-01-15T05:59:07;0.60;;;0.50;;
12687;SDS011;6408;59.388;17.798;2023-01-15T06:01:35;0.40;;;0.33;;
12687;SDS011;6408;59.388;17.798;2023-01-15T06:04:03;0.47;;;0.40;;
12687;SDS011;6408;59.388;17.798;2023-01-15T06:06:31;1.17;;;0.57;;
12687;SDS011;6408;59.388;17.798;2023-01-15T06:08:59;0.63;;;0.50;;
12687;SDS011;6408;59.388;17.798;2023-01-15T06:11:27;0.50;;;0.50;;
12687;SDS011;6408;59.388;17.798;2023-01-15T06:13:55;1.97;;;0.50;;
12687;SDS011;6408;59.388;17.798;2023-01-15T06:16:24;1.47;;;0.40;;
12687;SDS011;6408;59.388;17.798;2023-01-15T06:18:52;0.20;;;0.20;;
12687;SDS011;6408;59.388;17.798;2023-01-15T06:21:19;0.37;;;0.37;;
12687;SDS011;6408;59.388;17.798;2023-01-15T06:23:46;1.27;;;0.40;;
12687;SDS011;6408;59.388;17.798;2023-01-15T06:26:14;0.47;;;0.47;;
12687;SDS011;6408;59.388;17.798;2023-01-15T06:28:43;0.43;;;0.30;;
12687;SDS011;6408;59.388;17.798;2023-01-15T06:31:12;0.63;;;0.40;;
12687;SDS011;6408;59.388;17.798;2023-01-15T06:33:43;0.27;;;0.27;;
12687;SDS011;6408;59.388;17.798;2023-01-15T06:36:11;0.47;;;0.47;;
12687;SDS011;6408;59.388;17.798;2023-01-15T06:38:40;2.30;;;0.50;;
12687;SDS011;6408;59.388;17.798;2023-01-15T06:41:09;2.70;;;0.60;;
12687;SDS011;6408;59.388;17.798;2023-01-15T06:43:52;1.00;;;0.40;;
12687;SDS011;6408;59.388;17.798;2023-01-15T06:46:37;0.87;;;0.47;;
12687;SDS011;6408;59.388;17.798;2023-01-15T06:49:27;1.63;;;0.60;;
12687;SDS011;6408;59.388;17.798;2023-01-15T06:51:54;0.30;;;0.30;;
12687;SDS011;6408;59.388;17.798;2023-01-15T06:54:22;1.40;;;0.43;;
12687;SDS011;6408;59.388;17.798;2023-01-15T06:56:49;0.50;;;0.50;;
12687;SDS011;6408;59.388;17.798;2023-01-15T06:59:16;1.10;;;0.50;;
12687;SDS011;6408;59.388;17.798;2023-01-15T07:01:44;0.57;;;0.57;;
12687;SDS011;6408;59.388;17.798;2023-01-15T07:04:12;1.67;;;0.60;;
12687;SDS011;6408;59.388;17.798;2023-01-15T07:06:41;1.90;;;0.70;;
12687;SDS011;6408;59.388;17.798;2023-01-15T07:09:08;2.30;;;0.70;;
12687;SDS011;6408;59.388;17.798;2023-01-15T07:11:36;2.57;;;0.60;;
12687;SDS011;6408;59.388;17.798;2023-01-15T07:14:13;1.73;;;0.70;;
12687;SDS011;6408;59.388;17.798;2023-01-15T07:16:41;1.90;;;0.60;;
12687;SDS011;6408;59.388;17.798;2023-01-15T07:19:08;2.00;;;0.80;;
12687;SDS011;6408;59.388;17.798;2023-01-15T07:21:35;2.40;;;0.97;;
12687;SDS011;6408;59.388;17.798;2023-01-15T07:24:06;2.57;;;1.60;;
12687;SDS011;6408;59.388;17.798;2023-01-15T07:26:34;3.57;;;1.20;;
12687;SDS011;6408;59.388;17.798;2023-01-15T07:29:02;3.33;;;0.97;;
12687;SDS011;6408;59.388;17.798;2023-01-15T07:31:30;9.30;;;1.17;;
12687;SDS011;6408;59.388;17.798;2023-01-15T07:33:58;2.60;;;0.90;;
12687;SDS011;6408;59.388;17.798;2023-01-15T07:36:25;2.10;;;0.87;;
12687;SDS011;6408;59.388;17.798;2023-01-15T07:38:52;2.43;;;1.17;;
12687;SDS011;6408;59.388;17.798;2023-01-15T07:41:21;3.77;;;0.93;;
12687;SDS011;6408;59.388;17.798;2023-01-15T07:44:07;3.13;;;1.47;;
12687;SDS011;6408;59.388;17.798;2023-01-15T07:46:53;4.23;;;0.80;;
12687;SDS011;6408;59.388;17.798;2023-01-15T07:49:38;4.73;;;1.27;;
12687;SDS011;6408;59.388;17.798;2023-01-15T07:52:13;4.20;;;1.00;;
12687;SDS011;6408;59.388;17.798;2023-01-15T07:54:41;1.40;;;0.70;;
12687;SDS011;6408;59.388;17.798;2023-01-15T07:57:13;1.30;;;0.80;;
12687;SDS011;6408;59.388;17.798;2023-01-15T07:59:43;3.10;;;0.80;;
12687;SDS011;6408;59.388;17.798;2023-01-15T08:02:11;2.33;;;1.03;;
12687;SDS011;6408;59.388;17.798;2023-01-15T08:04:38;1.77;;;0.83;;
12687;SDS011;6408;59.388;17.798;2023-01-15T08:07:06;3.63;;;1.00;;
12687;SDS011;6408;59.388;17.798;2023-01-15T08:09:34;5.47;;;1.37;;
12687;SDS011;6408;59.388;17.798;2023-01-15T08:12:02;5.27;;;0.80;;
12687;SDS011;6408;59.388;17.798;2023-01-15T08:15:00;2.67;;;0.90;;
12687;SDS011;6408;59.388;17.798;2023-01-15T08:17:43;1.73;;;0.83;;
12687;SDS011;6408;59.388;17.798;2023-01-15T08:20:11;3.83;;;1.53;;
12687;SDS011;6408;59.388;17.798;2023-01-15T08:22:40;5.37;;;1.20;;
12687;SDS011;6408;59.388;17.798;2023-01-15T08:25:08;5.07;;;1.03;;
12687;SDS011;6408;59.388;17.798;2023-01-15T08:27:38;3.00;;;0.90;;
12687;SDS011;6408;59.388;17.798;2023-01-15T08:30:08;1.97;;;0.87;;
12687;SDS011;6408;59.388;17.798;2023-01-15T08:32:37;4.60;;;0.80;;
12687;SDS011;6408;59.388;17.798;2023-01-15T08:35:05;3.20;;;0.90;;
12687;SDS011;6408;59.388;17.798;2023-01-15T08:37:34;4.43;;;1.10;;
12687;SDS011;6408;59.388;17.798;2023-01-15T08:40:01;2.70;;;0.90;;
12687;SDS011;6408;59.388;17.798;2023-01-15T08:42:29;3.27;;;1.10;;
12687;SDS011;6408;59.388;17.798;2023-01-15T08:44:56;1.63;;;0.70;;
12687;SDS011;6408;59.388;17.798;2023-01-15T08:47:25;6.70;;;1.30;;
12687;SDS011;6408;59.388;17.798;2023-01-15T08:49:52;3.10;;;1.40;;
12687;SDS011;6408;59.388;17.798;2023-01-15T08:52:19;2.60;;;1.10;;
12687;SDS011;6408;59.388;17.798;2023-01-15T08:54:46;1.87;;;0.90;;
12687;SDS011;6408;59.388;17.798;2023-01-15T08:57:14;4.23;;;1.10;;
12687;SDS011;6408;59.388;17.798;2023-01-15T08:59:41;6.80;;;1.30;;
12687;SDS011;6408;59.388;17.798;2023-01-15T09:02:10;4.63;;;1.33;;
12687;SDS011;6408;59.388;17.798;2023-01-15T09:04:41;3.07;;;1.17;;
12687;SDS011;6408;59.388;17.798;2023-01-15T09:07:09;5.73;;;1.20;;
12687;SDS011;6408;59.388;17.798;2023-01-15T09:09:37;2.80;;;1.00;;
12687;SDS011;6408;59.388;17.798;2023-01-15T09:12:05;3.77;;;1.30;;
12687;SDS011;6408;59.388;17.798;2023-01-15T09:14:33;2.50;;;1.07;;
12687;SDS011;6408;59.388;17.798;2023-01-15T09:17:01;3.43;;;1.07;;
12687;SDS011;6408;59.388;17.798;2023-01-15T09:19:28;3.33;;;0.83;;
12687;SDS011;6408;59.388;17.798;2023-01-15T09:21:58;3.63;;;1.00;;
12687;SDS011;6408;59.388;17.798;2023-01-15T09:24:25;3.80;;;1.17;;
12687;SDS011;6408;59.388;17.798;2023-01-15T09:26:53;3.63;;;0.80;;
12687;SDS011;6408;59.388;17.798;2023-01-15T09:29:21;4.83;;;1.20;;
12687;SDS011;6408;59.388;17.798;2023-01-15T09:31:48;5.27;;;1.10;;
12687;SDS011;6408;59.388;17.798;2023-01-15T09:34:16;2.37;;;0.90;;
12687;SDS011;6408;59.388;17.798;2023-01-15T09:36:44;7.50;;;1.27;;
12687;SDS011;6408;59.388;17.798;2023-01-15T09:39:13;3.10;;;1.10;;
12687;SDS011;6408;59.388;17.798;2023-01-15T09:41:48;4.57;;;1.10;;
12687;SDS011;6408;59.388;17.798;2023-01-15T09:44:35;2.57;;;1.00;;
12687;SDS011;6408;59.388;17.798;2023-01-15T09:47:14;7.40;;;1.17;;
12687;SDS011;6408;59.388;17.798;2023-01-15T09:49:49;5.37;;;1.03;;
12687;SDS011;6408;59.388;17.798;2023-01-15T09:52:30;5.10;;;1.20;;
12687;SDS011;6408;59.388;17.798;2023-01-15T09:55:12;3.43;;;0.90;;
12687;SDS011;6408;59.388;17.798;2023-01-15T09:57:41;5.30;;;1.10;;
12687;SDS011;6408;59.388;17.798;2023-01-15T10:00:12;4.03;;;1.03;;
12687;SDS011;6408;59.388;17.798;2023-01-15T10:02:45;2.17;;;0.97;;
12687;SDS011;6408;59.388;17.798;2023-01-15T10:05:17;4.30;;;1.23;;
12687;SDS011;6408;59.388;17.798;2023-01-15T10:07:52;5.27;;;1.10;;
12687;SDS011;6408;59.388;17.798;2023-01-15T10:10:26;3.50;;;1.13;;
12687;SDS011;6408;59.388;17.798;2023-01-15T10:13:01;6.10;;;1.30;;
12687;SDS011;6408;59.388;17.798;2023-01-15T10:15:35;4.70;;;1.60;;
12687;SDS011;6408;59.388;17.798;2023-01-15T10:18:05;2.67;;;0.90;;
12687;SDS011;6408;59.388;17.798;2023-01-15T10:20:48;4.90;;;1.00;;
12687;SDS011;6408;59.388;17.798;2023-01-15T10:23:31;6.23;;;1.23;;
12687;SDS011;6408;59.388;17.798;2023-01-15T10:26:07;3.13;;;1.30;;
12687;SDS011;6408;59.388;17.798;2023-01-15T10:28:52;2.93;;;1.00;;
12687;SDS011;6408;59.388;17.798;2023-01-15T10:31:29;5.60;;;1.20;;
12687;SDS011;6408;59.388;17.798;2023-01-15T10:34:22;4.63;;;1.50;;
12687;SDS011;6408;59.388;17.798;2023-01-15T10:37:11;4.00;;;1.17;;
12687;SDS011;6408;59.388;17.798;2023-01-15T10:39:46;6.60;;;1.50;;
12687;SDS011;6408;59.388;17.798;2023-01-15T10:42:26;2.37;;;1.03;;
12687;SDS011;6408;59.388;17.798;2023-01-15T10:45:03;3.33;;;1.33;;
12687;SDS011;6408;59.388;17.798;2023-01-15T10:47:36;4.73;;;1.40;;
12687;SDS011;6408;59.388;17.798;2023-01-15T10:50:12;5.87;;;1.67;;
12687;SDS011;6408;59.388;17.798;2023-01-15T10:52:44;4.03;;;1.43;;
12687;SDS011;6408;59.388;17.798;2023-01-15T10:55:16;4.40;;;1.10;;
12687;SDS011;6408;59.388;17.798;2023-01-15T10:57:52;5.97;;;1.50;;
12687;SDS011;6408;59.388;17.798;2023-01-15T11:00:26;7.87;;;1.50;;
12687;SDS011;6408;59.388;17.798;2023-01-15T11:02:57;6.73;;;1.83;;
12687;SDS011;6408;59.388;17.798;2023-01-15T11:05:30;3.33;;;1.40;;
12687;SDS011;6408;59.388;17.798;2023-01-15T11:07:58;6.80;;;1.70;;
12687;SDS011;6408;59.388;17.798;2023-01-15T11:10:28;3.43;;;1.23;;
12687;SDS011;6408;59.388;17.798;2023-01-15T11:12:59;8.43;;;1.37;;
12687;SDS011;6408;59.388;17.798;2023-01-15T11:15:58;6.97;;;1.40;;
12687;SDS011;6408;59.388;17.798;2023-01-15T11:18:43;4.20;;;1.57;;
12687;SDS011;6408;59.388;17.798;2023-01-15T11:21:29;5.60;;;1.43;;
12687;SDS011;6408;59.388;17.798;2023-01-15T11:23:57;5.27;;;1.63;;
12687;SDS011;6408;59.388;17.798;2023-01-15T11:26:27;8.47;;;1.60;;
12687;SDS011;6408;59.388;17.798;2023-01-15T11:28:59;8.40;;;1.93;;
12687;SDS011;6408;59.388;17.798;2023-01-15T11:31:38;8.60;;;1.53;;
12687;SDS011;6408;59.388;17.798;2023-01-15T11:34:15;5.70;;;1.60;;
12687;SDS011;6408;59.388;17.798;2023-01-15T11:36:45;5.53;;;1.57;;
12687;SDS011;6408;59.388;17.798;2023-01-15T11:39:22;4.07;;;1.40;;
12687;SDS011;6408;59.388;17.798;2023-01-15T11:41:57;5.30;;;1.30;;
12687;SDS011;6408;59.388;17.798;2023-01-15T11:44:50;6.53;;;1.33;;
12687;SDS011;6408;59.388;17.798;2023-01-15T11:47:36;4.50;;;1.63;;
12687;SDS011;6408;59.388;17.798;2023-01-15T11:50:20;9.03;;;1.63;;
12687;SDS011;6408;59.388;17.798;2023-01-15T11:53:06;5.70;;;1.57;;
12687;SDS011;6408;59.388;17.798;2023-01-15T11:55:40;7.33;;;1.73;;
12687;SDS011;6408;59.388;17.798;2023-01-15T11:58:20;4.80;;;1.70;;
12687;SDS011;6408;59.388;17.798;2023-01-15T12:00:51;3.30;;;1.43;;
12687;SDS011;6408;59.388;17.798;2023-01-15T12:03:21;7.90;;;2.47;;
12687;SDS011;6408;59.388;17.798;2023-01-15T12:05:56;4.10;;;1.40;;
12687;SDS011;6408;59.388;17.798;2023-01-15T12:14:27;3.63;;;1.50;;
12687;SDS011;6408;59.388;17.798;2023-01-15T12:17:16;5.30;;;1.40;;
12687;SDS011;6408;59.388;17.798;2023-01-15T12:19:56;6.33;;;1.83;;
12687;SDS011;6408;59.388;17.798;2023-01-15T12:22:35;5.23;;;1.33;;
12687;SDS011;6408;59.388;17.798;2023-01-15T12:25:18;4.37;;;1.37;;
12687;SDS011;6408;59.388;17.798;2023-01-15T12:27:53;5.23;;;1.23;;
12687;SDS011;6408;59.388;17.798;2023-01-15T12:30:30;4.97;;;1.53;;
12687;SDS011;6408;59.388;17.798;2023-01-15T12:33:09;7.80;;;1.83;;
12687;SDS011;6408;59.388;17.798;2023-01-15T12:35:43;6.90;;;1.73;;
12687;SDS011;6408;59.388;17.798;2023-01-15T12:38:21;7.33;;;1.70;;
12687;SDS011;6408;59.388;17.798;2023-01-15T12:40:58;9.80;;;2.03;;
12687;SDS011;6408;59.388;17.798;2023-01-15T12:43:30;7.33;;;1.63;;
12687;SDS011;6408;59.388;17.798;2023-01-15T12:46:15;5.13;;;1.73;;
12687;SDS011;6408;59.388;17.798;2023-01-15T12:48:51;6.63;;;1.47;;
12687;SDS011;6408;59.388;17.798;2023-01-15T12:51:27;3.93;;;1.40;;
12687;SDS011;6408;59.388;17.798;2023-01-15T12:54:00;7.63;;;1.57;;
12687;SDS011;6408;59.388;17.798;2023-01-15T12:56:32;7.20;;;2.17;;
12687;SDS011;6408;59.388;17.798;2023-01-15T12:59:09;5.83;;;1.70;;
12687;SDS011;6408;59.388;17.798;2023-01-15T13:01:44;7.37;;;1.70;;
12687;SDS011;6408;59.388;17.798;2023-01-15T13:04:21;6.53;;;1.40;;
12687;SDS011;6408;59.388;17.798;2023-01-15T13:06:55;5.87;;;1.33;;
12687;SDS011;6408;59.388;17.798;2023-01-15T13:09:32;5.43;;;1.67;;
12687;SDS011;6408;59.388;17.798;2023-01-15T13:12:08;5.33;;;1.60;;
12687;SDS011;6408;59.388;17.798;2023-01-15T13:14:38;8.43;;;2.00;;
12687;SDS011;6408;59.388;17.798;2023-01-15T13:17:07;5.83;;;1.67;;
12687;SDS011;6408;59.388;17.798;2023-01-15T13:22:40;7.67;;;1.80;;
12687;SDS011;6408;59.388;17.798;2023-01-15T13:28:18;5.17;;;2.23;;
12687;SDS011;6408;59.388;17.798;2023-01-15T13:30:59;5.97;;;1.70;;
12687;SDS011;6408;59.388;17.798;2023-01-15T13:33:35;4.53;;;1.57;;
12687;SDS011;6408;59.388;17.798;2023-01-15T13:36:10;8.53;;;2.53;;
12687;SDS011;6408;59.388;17.798;2023-01-15T13:38:42;7.03;;;1.73;;
12687;SDS011;6408;59.388;17.798;2023-01-15T13:41:15;8.20;;;1.97;;
12687;SDS011;6408;59.388;17.798;2023-01-15T13:44:11;4.10;;;1.70;;
12687;SDS011;6408;59.388;17.798;2023-01-15T13:46:43;6.97;;;1.70;;
12687;SDS011;6408;59.388;17.798;2023-01-15T13:49:17;6.07;;;1.57;;
12687;SDS011;6408;59.388;17.798;2023-01-15T13:51:51;6.13;;;1.57;;
12687;SDS011;6408;59.388;17.798;2023-01-15T13:54:22;6.30;;;1.73;;
12687;SDS011;6408;59.388;17.798;2023-01-15T13:56:52;9.13;;;1.77;;
12687;SDS011;6408;59.388;17.798;2023-01-15T13:59:30;6.23;;;1.70;;
12687;SDS011;6408;59.388;17.798;2023-01-15T14:02:12;5.80;;;1.83;;
12687;SDS011;6408;59.388;17.798;2023-01-15T14:04:50;5.03;;;1.70;;
12687;SDS011;6408;59.388;17.798;2023-01-15T14:07:20;9.17;;;1.80;;
12687;SDS011;6408;59.388;17.798;2023-01-15T14:10:06;4.17;;;1.50;;
12687;SDS011;6408;59.388;17.798;2023-01-15T14:12:37;7.63;;;1.60;;
12687;SDS011;6408;59.388;17.798;2023-01-15T14:18:14;5.87;;;1.73;;
12687;SDS011;6408;59.388;17.798;2023-01-15T14:20:54;5.23;;;1.60;;
12687;SDS011;6408;59.388;17.798;2023-01-15T14:23:47;6.10;;;1.67;;
12687;SDS011;6408;59.388;17.798;2023-01-15T14:26:35;10.67;;;2.00;;
12687;SDS011;6408;59.388;17.798;2023-01-15T14:29:22;7.60;;;1.70;;
12687;SDS011;6408;59.388;17.798;2023-01-15T14:32:07;5.40;;;1.40;;
12687;SDS011;6408;59.388;17.798;2023-01-15T14:34:41;5.47;;;1.50;;
12687;SDS011;6408;59.388;17.798;2023-01-15T14:37:20;8.20;;;1.70;;
12687;SDS011;6408;59.388;17.798;2023-01-15T14:39:52;4.77;;;1.83;;
12687;SDS011;6408;59.388;17.798;2023-01-15T14:42:24;5.70;;;1.40;;
12687;SDS011;6408;59.388;17.798;2023-01-15T14:45:22;10.47;;;1.90;;
12687;SDS011;6408;59.388;17.798;2023-01-15T14:47:52;9.27;;;2.20;;
12687;SDS011;6408;59.388;17.798;2023-01-15T14:50:23;10.80;;;1.83;;
12687;SDS011;6408;59.388;17.798;2023-01-15T14:56:06;7.67;;;1.97;;
12687;SDS011;6408;59.388;17.798;2023-01-15T14:58:43;4.93;;;1.63;;
12687;SDS011;6408;59.388;17.798;2023-01-15T15:01:16;8.27;;;2.20;;
12687;SDS011;6408;59.388;17.798;2023-01-15T15:03:55;4.37;;;1.43;;
12687;SDS011;6408;59.388;17.798;2023-01-15T15:06:26;6.97;;;1.50;;
12687;SDS011;6408;59.388;17.798;2023-01-15T15:08:56;5.37;;;2.03;;
12687;SDS011;6408;59.388;17.798;2023-01-15T15:11:32;5.23;;;1.80;;
12687;SDS011;6408;59.388;17.798;2023-01-15T15:14:21;8.50;;;1.80;;
12687;SDS011;6408;59.388;17.798;2023-01-15T15:16:53;4.80;;;1.50;;
12687;SDS011;6408;59.388;17.798;2023-01-15T15:19:26;5.13;;;1.33;;
12687;SDS011;6408;59.388;17.798;2023-01-15T15:21:56;9.53;;;1.73;;
12687;SDS011;6408;59.388;17.798;2023-01-15T15:24:29;7.10;;;1.70;;
12687;SDS011;6408;59.388;17.798;2023-01-15T15:27:10;6.67;;;2.17;;
12687;SDS011;6408;59.388;17.798;2023-01-15T15:29:41;10.37;;;2.17;;
12687;SDS011;6408;59.388;17.798;2023-01-15T15:32:09;7.20;;;1.73;;
12687;SDS011;6408;59.388;17.798;2023-01-15T15:34:42;5.53;;;1.97;;
12687;SDS011;6408;59.388;17.798;2023-01-15T15:37:15;6.43;;;1.90;;
12687;SDS011;6408;59.388;17.798;2023-01-15T15:39:44;8.03;;;2.60;;
12687;SDS011;6408;59.388;17.798;2023-01-15T15:42:20;5.53;;;2.07;;